Bruno, Minnesota
Current Conditions -  °F | °C
As of 10:33 PM on Friday 24 Oct 2014 (Local Time) from KMZH Reporting Station
Clear Clear  
Wind Chill: 52°   Ceiling: Unl
Heat Index: 52°   Visibility: 10mi
Dew Point: 46°   Wind: 5mph
Humidity: 82%   Direction: 260°W
Pressure: 29.78"   Gusts: NA
Location:  46.28°N, 92.66°W
Report Text: KMZH 250333Z AUTO 26004KT 10SM CLR 11/08 A2978 RMK AO2
Loading
Personal Weather Stations






























Interactive Weather Map
Tropical Storm Tracking
New forecast layout! Learn more

10-Day Weather Forecast

Advertisements
Track Severe Weather on mobile